sensor_id;sensor_type;location;lat;lon;timestamp;P1;durP1;ratioP1;P2;durP2;ratioP2
20629;SDS011;17386;43.846;25.950;2023-04-25T00:01:16;7.13;;;5.00;;
20629;SDS011;17386;43.846;25.950;2023-04-25T00:03:42;6.45;;;4.38;;
20629;SDS011;17386;43.846;25.950;2023-04-25T00:06:08;8.75;;;4.45;;
20629;SDS011;17386;43.846;25.950;2023-04-25T00:08:33;9.55;;;4.72;;
20629;SDS011;17386;43.846;25.950;2023-04-25T00:10:58;7.28;;;4.68;;
20629;SDS011;17386;43.846;25.950;2023-04-25T00:13:24;6.72;;;4.28;;
20629;SDS011;17386;43.846;25.950;2023-04-25T00:15:51;8.95;;;4.38;;
20629;SDS011;17386;43.846;25.950;2023-04-25T00:18:18;5.90;;;4.07;;
20629;SDS011;17386;43.846;25.950;2023-04-25T00:20:44;7.15;;;4.38;;
20629;SDS011;17386;43.846;25.950;2023-04-25T00:23:15;6.57;;;4.10;;
20629;SDS011;17386;43.846;25.950;2023-04-25T00:25:46;6.88;;;3.42;;
20629;SDS011;17386;43.846;25.950;2023-04-25T00:28:12;6.63;;;3.65;;
20629;SDS011;17386;43.846;25.950;2023-04-25T00:30:39;6.78;;;3.47;;
20629;SDS011;17386;43.846;25.950;2023-04-25T00:33:05;7.55;;;3.67;;
20629;SDS011;17386;43.846;25.950;2023-04-25T00:35:30;6.05;;;3.63;;
20629;SDS011;17386;43.846;25.950;2023-04-25T00:37:56;7.05;;;3.53;;
20629;SDS011;17386;43.846;25.950;2023-04-25T00:40:21;6.88;;;3.95;;
20629;SDS011;17386;43.846;25.950;2023-04-25T00:42:47;6.28;;;3.75;;
20629;SDS011;17386;43.846;25.950;2023-04-25T00:45:13;5.97;;;3.95;;
20629;SDS011;17386;43.846;25.950;2023-04-25T00:47:40;5.85;;;3.75;;
20629;SDS011;17386;43.846;25.950;2023-04-25T00:50:06;6.65;;;3.85;;
20629;SDS011;17386;43.846;25.950;2023-04-25T00:52:32;7.68;;;4.32;;
20629;SDS011;17386;43.846;25.950;2023-04-25T00:54:57;10.73;;;4.15;;
20629;SDS011;17386;43.846;25.950;2023-04-25T00:57:23;7.28;;;3.80;;
20629;SDS011;17386;43.846;25.950;2023-04-25T00:59:49;9.38;;;4.43;;
20629;SDS011;17386;43.846;25.950;2023-04-25T01:02:16;7.15;;;4.35;;
20629;SDS011;17386;43.846;25.950;2023-04-25T01:04:41;5.85;;;3.85;;
20629;SDS011;17386;43.846;25.950;2023-04-25T01:07:07;7.65;;;4.20;;
20629;SDS011;17386;43.846;25.950;2023-04-25T01:09:33;7.80;;;4.35;;
20629;SDS011;17386;43.846;25.950;2023-04-25T01:11:58;6.57;;;4.13;;
20629;SDS011;17386;43.846;25.950;2023-04-25T01:14:25;8.93;;;4.30;;
20629;SDS011;17386;43.846;25.950;2023-04-25T01:16:50;8.18;;;4.35;;
20629;SDS011;17386;43.846;25.950;2023-04-25T01:19:17;7.20;;;4.18;;
20629;SDS011;17386;43.846;25.950;2023-04-25T01:21:44;8.85;;;4.80;;
20629;SDS011;17386;43.846;25.950;2023-04-25T01:24:10;8.27;;;5.18;;
20629;SDS011;17386;43.846;25.950;2023-04-25T01:26:36;9.07;;;5.13;;
20629;SDS011;17386;43.846;25.950;2023-04-25T01:29:03;9.10;;;4.65;;
20629;SDS011;17386;43.846;25.950;2023-04-25T01:33:55;9.13;;;4.87;;
20629;SDS011;17386;43.846;25.950;2023-04-25T01:36:20;7.10;;;4.35;;
20629;SDS011;17386;43.846;25.950;2023-04-25T01:38:46;8.05;;;4.55;;
20629;SDS011;17386;43.846;25.950;2023-04-25T01:41:12;8.80;;;4.80;;
20629;SDS011;17386;43.846;25.950;2023-04-25T01:43:39;8.38;;;4.35;;
20629;SDS011;17386;43.846;25.950;2023-04-25T01:46:04;7.22;;;4.60;;
20629;SDS011;17386;43.846;25.950;2023-04-25T01:48:30;8.50;;;4.20;;
20629;SDS011;17386;43.846;25.950;2023-04-25T01:50:55;7.15;;;4.32;;
20629;SDS011;17386;43.846;25.950;2023-04-25T01:53:21;7.40;;;4.38;;
20629;SDS011;17386;43.846;25.950;2023-04-25T01:55:47;7.18;;;4.00;;
20629;SDS011;17386;43.846;25.950;2023-04-25T01:58:13;11.13;;;4.32;;
20629;SDS011;17386;43.846;25.950;2023-04-25T02:00:38;8.43;;;4.38;;
20629;SDS011;17386;43.846;25.950;2023-04-25T02:03:05;8.02;;;4.68;;
20629;SDS011;17386;43.846;25.950;2023-04-25T02:05:35;8.13;;;4.78;;
20629;SDS011;17386;43.846;25.950;2023-04-25T02:08:01;7.40;;;4.63;;
20629;SDS011;17386;43.846;25.950;2023-04-25T02:10:28;6.95;;;4.60;;
20629;SDS011;17386;43.846;25.950;2023-04-25T02:12:53;9.10;;;5.18;;
20629;SDS011;17386;43.846;25.950;2023-04-25T02:15:19;7.95;;;4.55;;
20629;SDS011;17386;43.846;25.950;2023-04-25T02:17:44;8.43;;;4.60;;
20629;SDS011;17386;43.846;25.950;2023-04-25T02:20:10;7.88;;;5.05;;
20629;SDS011;17386;43.846;25.950;2023-04-25T02:22:36;9.55;;;5.05;;
20629;SDS011;17386;43.846;25.950;2023-04-25T02:25:01;9.18;;;4.85;;
20629;SDS011;17386;43.846;25.950;2023-04-25T02:27:29;8.82;;;4.93;;
20629;SDS011;17386;43.846;25.950;2023-04-25T02:29:55;8.45;;;5.30;;
20629;SDS011;17386;43.846;25.950;2023-04-25T02:32:21;7.85;;;4.63;;
20629;SDS011;17386;43.846;25.950;2023-04-25T02:34:46;10.32;;;4.97;;
20629;SDS011;17386;43.846;25.950;2023-04-25T02:37:13;8.13;;;5.10;;
20629;SDS011;17386;43.846;25.950;2023-04-25T02:39:38;9.32;;;4.95;;
20629;SDS011;17386;43.846;25.950;2023-04-25T02:42:04;7.13;;;4.72;;
20629;SDS011;17386;43.846;25.950;2023-04-25T02:44:29;9.45;;;5.25;;
20629;SDS011;17386;43.846;25.950;2023-04-25T02:46:55;9.77;;;5.05;;
20629;SDS011;17386;43.846;25.950;2023-04-25T02:49:20;10.43;;;4.82;;
20629;SDS011;17386;43.846;25.950;2023-04-25T02:51:45;7.97;;;4.40;;
20629;SDS011;17386;43.846;25.950;2023-04-25T02:54:11;7.50;;;5.10;;
20629;SDS011;17386;43.846;25.950;2023-04-25T02:56:36;7.05;;;4.68;;
20629;SDS011;17386;43.846;25.950;2023-04-25T02:59:02;9.45;;;5.00;;
20629;SDS011;17386;43.846;25.950;2023-04-25T03:01:27;9.07;;;4.68;;
20629;SDS011;17386;43.846;25.950;2023-04-25T03:03:52;7.72;;;5.47;;
20629;SDS011;17386;43.846;25.950;2023-04-25T03:06:18;8.82;;;5.03;;
20629;SDS011;17386;43.846;25.950;2023-04-25T03:08:43;7.85;;;4.88;;
20629;SDS011;17386;43.846;25.950;2023-04-25T03:11:09;9.32;;;5.30;;
20629;SDS011;17386;43.846;25.950;2023-04-25T03:13:34;7.50;;;4.90;;
20629;SDS011;17386;43.846;25.950;2023-04-25T03:16:00;6.45;;;4.97;;
20629;SDS011;17386;43.846;25.950;2023-04-25T03:18:25;9.77;;;6.20;;
20629;SDS011;17386;43.846;25.950;2023-04-25T03:20:51;8.45;;;5.60;;
20629;SDS011;17386;43.846;25.950;2023-04-25T03:23:16;10.38;;;5.15;;
20629;SDS011;17386;43.846;25.950;2023-04-25T03:25:42;12.70;;;5.40;;
20629;SDS011;17386;43.846;25.950;2023-04-25T03:28:07;9.68;;;5.80;;
20629;SDS011;17386;43.846;25.950;2023-04-25T03:30:33;10.02;;;6.28;;
20629;SDS011;17386;43.846;25.950;2023-04-25T03:32:58;10.65;;;5.80;;
20629;SDS011;17386;43.846;25.950;2023-04-25T03:35:24;8.65;;;5.30;;
20629;SDS011;17386;43.846;25.950;2023-04-25T03:37:49;17.23;;;6.63;;
20629;SDS011;17386;43.846;25.950;2023-04-25T03:40:15;9.80;;;6.35;;
20629;SDS011;17386;43.846;25.950;2023-04-25T03:42:40;11.73;;;6.32;;
20629;SDS011;17386;43.846;25.950;2023-04-25T03:45:06;12.63;;;5.90;;
20629;SDS011;17386;43.846;25.950;2023-04-25T03:47:32;9.80;;;5.82;;
20629;SDS011;17386;43.846;25.950;2023-04-25T03:49:57;10.13;;;5.40;;
20629;SDS011;17386;43.846;25.950;2023-04-25T03:52:25;9.45;;;5.43;;
20629;SDS011;17386;43.846;25.950;2023-04-25T03:54:50;13.55;;;7.78;;
20629;SDS011;17386;43.846;25.950;2023-04-25T03:57:16;12.23;;;5.13;;
20629;SDS011;17386;43.846;25.950;2023-04-25T03:59:41;10.73;;;5.03;;
20629;SDS011;17386;43.846;25.950;2023-04-25T04:02:07;10.18;;;5.43;;
20629;SDS011;17386;43.846;25.950;2023-04-25T04:04:32;10.90;;;5.28;;
20629;SDS011;17386;43.846;25.950;2023-04-25T04:06:58;11.15;;;5.03;;
20629;SDS011;17386;43.846;25.950;2023-04-25T04:09:23;15.25;;;5.15;;
20629;SDS011;17386;43.846;25.950;2023-04-25T04:11:48;11.60;;;5.03;;
20629;SDS011;17386;43.846;25.950;2023-04-25T04:14:14;10.63;;;5.07;;
20629;SDS011;17386;43.846;25.950;2023-04-25T04:16:39;10.00;;;5.20;;
20629;SDS011;17386;43.846;25.950;2023-04-25T04:19:05;9.77;;;5.30;;
20629;SDS011;17386;43.846;25.950;2023-04-25T04:21:30;8.23;;;5.63;;
20629;SDS011;17386;43.846;25.950;2023-04-25T04:23:56;15.48;;;5.78;;
20629;SDS011;17386;43.846;25.950;2023-04-25T04:26:22;14.82;;;5.60;;
20629;SDS011;17386;43.846;25.950;2023-04-25T04:28:51;13.45;;;5.22;;
20629;SDS011;17386;43.846;25.950;2023-04-25T04:31:16;12.55;;;5.22;;
20629;SDS011;17386;43.846;25.950;2023-04-25T04:36:09;11.65;;;7.00;;
20629;SDS011;17386;43.846;25.950;2023-04-25T04:38:35;21.45;;;6.53;;
20629;SDS011;17386;43.846;25.950;2023-04-25T04:41:01;14.45;;;6.13;;
20629;SDS011;17386;43.846;25.950;2023-04-25T04:43:27;13.32;;;6.15;;
20629;SDS011;17386;43.846;25.950;2023-04-25T04:45:53;13.68;;;5.78;;
20629;SDS011;17386;43.846;25.950;2023-04-25T04:50:46;17.45;;;6.18;;
20629;SDS011;17386;43.846;25.950;2023-04-25T04:53:12;13.82;;;6.10;;
20629;SDS011;17386;43.846;25.950;2023-04-25T04:55:37;11.35;;;5.60;;
20629;SDS011;17386;43.846;25.950;2023-04-25T04:58:03;20.15;;;5.97;;
20629;SDS011;17386;43.846;25.950;2023-04-25T05:00:28;19.08;;;6.30;;
20629;SDS011;17386;43.846;25.950;2023-04-25T05:02:54;12.00;;;6.55;;
20629;SDS011;17386;43.846;25.950;2023-04-25T05:05:20;11.55;;;6.53;;
20629;SDS011;17386;43.846;25.950;2023-04-25T05:07:45;15.02;;;6.35;;
20629;SDS011;17386;43.846;25.950;2023-04-25T05:10:11;11.30;;;6.15;;
20629;SDS011;17386;43.846;25.950;2023-04-25T05:12:36;12.07;;;5.95;;
20629;SDS011;17386;43.846;25.950;2023-04-25T05:15:02;10.10;;;6.30;;
20629;SDS011;17386;43.846;25.950;2023-04-25T05:17:27;15.88;;;6.60;;
20629;SDS011;17386;43.846;25.950;2023-04-25T05:19:52;11.73;;;6.95;;
20629;SDS011;17386;43.846;25.950;2023-04-25T05:22:18;10.43;;;6.90;;
20629;SDS011;17386;43.846;25.950;2023-04-25T05:24:43;14.57;;;7.70;;
20629;SDS011;17386;43.846;25.950;2023-04-25T05:27:09;11.38;;;7.05;;
20629;SDS011;17386;43.846;25.950;2023-04-25T05:29:34;19.33;;;11.32;;
20629;SDS011;17386;43.846;25.950;2023-04-25T05:32:00;16.63;;;7.65;;
20629;SDS011;17386;43.846;25.950;2023-04-25T05:34:25;12.10;;;6.28;;
20629;SDS011;17386;43.846;25.950;2023-04-25T05:36:51;13.02;;;6.45;;
20629;SDS011;17386;43.846;25.950;2023-04-25T05:39:16;9.82;;;6.40;;
20629;SDS011;17386;43.846;25.950;2023-04-25T05:41:42;14.55;;;6.95;;
20629;SDS011;17386;43.846;25.950;2023-04-25T05:44:08;17.13;;;13.60;;
20629;SDS011;17386;43.846;25.950;2023-04-25T05:46:33;15.48;;;7.72;;
20629;SDS011;17386;43.846;25.950;2023-04-25T05:48:59;16.33;;;8.27;;
20629;SDS011;17386;43.846;25.950;2023-04-25T05:51:24;15.65;;;6.97;;
20629;SDS011;17386;43.846;25.950;2023-04-25T05:53:50;15.02;;;8.85;;
20629;SDS011;17386;43.846;25.950;2023-04-25T05:56:16;16.27;;;7.90;;
20629;SDS011;17386;43.846;25.950;2023-04-25T05:58:41;14.93;;;8.05;;
20629;SDS011;17386;43.846;25.950;2023-04-25T06:01:07;13.65;;;8.13;;
20629;SDS011;17386;43.846;25.950;2023-04-25T06:03:33;14.32;;;8.02;;
20629;SDS011;17386;43.846;25.950;2023-04-25T06:05:59;13.77;;;8.10;;
20629;SDS011;17386;43.846;25.950;2023-04-25T06:08:24;13.07;;;7.15;;
20629;SDS011;17386;43.846;25.950;2023-04-25T06:10:50;16.63;;;7.75;;
20629;SDS011;17386;43.846;25.950;2023-04-25T06:13:15;23.05;;;9.32;;
20629;SDS011;17386;43.846;25.950;2023-04-25T06:15:40;15.90;;;8.73;;
20629;SDS011;17386;43.846;25.950;2023-04-25T06:18:06;19.67;;;10.10;;
20629;SDS011;17386;43.846;25.950;2023-04-25T06:20:31;18.00;;;11.07;;
20629;SDS011;17386;43.846;25.950;2023-04-25T06:22:57;15.13;;;8.65;;
20629;SDS011;17386;43.846;25.950;2023-04-25T06:25:22;22.70;;;10.70;;
20629;SDS011;17386;43.846;25.950;2023-04-25T06:27:47;16.98;;;9.35;;
20629;SDS011;17386;43.846;25.950;2023-04-25T06:30:13;17.70;;;8.95;;
20629;SDS011;17386;43.846;25.950;2023-04-25T06:32:39;21.98;;;10.52;;
20629;SDS011;17386;43.846;25.950;2023-04-25T06:35:04;22.50;;;11.05;;
20629;SDS011;17386;43.846;25.950;2023-04-25T06:37:30;22.65;;;11.40;;
20629;SDS011;17386;43.846;25.950;2023-04-25T06:39:56;26.80;;;13.05;;
20629;SDS011;17386;43.846;25.950;2023-04-25T06:42:21;30.42;;;11.93;;
20629;SDS011;17386;43.846;25.950;2023-04-25T06:44:47;25.52;;;11.77;;
20629;SDS011;17386;43.846;25.950;2023-04-25T06:47:12;21.27;;;10.68;;
20629;SDS011;17386;43.846;25.950;2023-04-25T06:49:38;20.25;;;11.27;;
20629;SDS011;17386;43.846;25.950;2023-04-25T06:52:03;21.95;;;11.30;;
20629;SDS011;17386;43.846;25.950;2023-04-25T06:54:28;21.55;;;11.85;;
20629;SDS011;17386;43.846;25.950;2023-04-25T06:56:55;25.23;;;12.32;;
20629;SDS011;17386;43.846;25.950;2023-04-25T06:59:21;27.67;;;13.55;;
20629;SDS011;17386;43.846;25.950;2023-04-25T07:01:46;22.70;;;13.23;;
20629;SDS011;17386;43.846;25.950;2023-04-25T07:04:11;25.15;;;12.98;;
20629;SDS011;17386;43.846;25.950;2023-04-25T07:06:37;27.17;;;12.25;;
20629;SDS011;17386;43.846;25.950;2023-04-25T07:09:07;27.33;;;12.30;;
20629;SDS011;17386;43.846;25.950;2023-04-25T07:11:36;20.73;;;11.30;;
20629;SDS011;17386;43.846;25.950;2023-04-25T07:14:02;17.83;;;10.82;;
20629;SDS011;17386;43.846;25.950;2023-04-25T07:16:28;19.67;;;12.02;;
20629;SDS011;17386;43.846;25.950;2023-04-25T07:18:53;18.75;;;11.25;;
20629;SDS011;17386;43.846;25.950;2023-04-25T07:21:19;21.42;;;12.20;;
20629;SDS011;17386;43.846;25.950;2023-04-25T07:23:44;20.92;;;12.38;;
20629;SDS011;17386;43.846;25.950;2023-04-25T07:26:10;22.88;;;12.35;;
20629;SDS011;17386;43.846;25.950;2023-04-25T07:28:35;23.85;;;13.70;;
20629;SDS011;17386;43.846;25.950;2023-04-25T07:31:01;24.27;;;13.73;;
20629;SDS011;17386;43.846;25.950;2023-04-25T07:33:27;31.42;;;14.80;;
20629;SDS011;17386;43.846;25.950;2023-04-25T07:35:52;24.50;;;12.85;;
20629;SDS011;17386;43.846;25.950;2023-04-25T07:38:18;26.25;;;13.35;;
20629;SDS011;17386;43.846;25.950;2023-04-25T07:40:43;24.23;;;13.60;;
20629;SDS011;17386;43.846;25.950;2023-04-25T07:43:09;26.02;;;13.07;;
20629;SDS011;17386;43.846;25.950;2023-04-25T07:45:37;23.25;;;12.13;;
20629;SDS011;17386;43.846;25.950;2023-04-25T07:48:02;24.35;;;12.85;;
20629;SDS011;17386;43.846;25.950;2023-04-25T07:50:28;18.60;;;10.68;;
20629;SDS011;17386;43.846;25.950;2023-04-25T07:52:53;20.88;;;10.98;;
20629;SDS011;17386;43.846;25.950;2023-04-25T07:55:19;21.52;;;11.05;;
20629;SDS011;17386;43.846;25.950;2023-04-25T07:57:44;20.13;;;11.02;;
20629;SDS011;17386;43.846;25.950;2023-04-25T08:00:10;21.10;;;11.45;;
20629;SDS011;17386;43.846;25.950;2023-04-25T08:02:37;23.00;;;12.50;;
20629;SDS011;17386;43.846;25.950;2023-04-25T08:05:02;28.27;;;13.50;;
20629;SDS011;17386;43.846;25.950;2023-04-25T08:07:28;21.15;;;11.88;;
20629;SDS011;17386;43.846;25.950;2023-04-25T08:09:54;23.10;;;12.90;;
20629;SDS011;17386;43.846;25.950;2023-04-25T08:12:19;19.60;;;10.52;;
20629;SDS011;17386;43.846;25.950;2023-04-25T08:14:45;17.58;;;9.95;;
20629;SDS011;17386;43.846;25.950;2023-04-25T08:17:10;18.10;;;10.27;;
20629;SDS011;17386;43.846;25.950;2023-04-25T08:19:36;18.95;;;10.25;;
20629;SDS011;17386;43.846;25.950;2023-04-25T08:22:01;15.95;;;9.82;;
20629;SDS011;17386;43.846;25.950;2023-04-25T08:24:27;14.77;;;9.35;;
20629;SDS011;17386;43.846;25.950;2023-04-25T08:26:52;15.75;;;9.30;;
20629;SDS011;17386;43.846;25.950;2023-04-25T08:29:18;14.05;;;8.65;;
20629;SDS011;17386;43.846;25.950;2023-04-25T08:31:44;16.50;;;9.43;;
20629;SDS011;17386;43.846;25.950;2023-04-25T08:34:10;23.90;;;14.13;;
20629;SDS011;17386;43.846;25.950;2023-04-25T08:36:36;18.33;;;10.27;;
20629;SDS011;17386;43.846;25.950;2023-04-25T08:39:01;15.93;;;8.88;;
20629;SDS011;17386;43.846;25.950;2023-04-25T08:41:27;22.33;;;11.82;;
20629;SDS011;17386;43.846;25.950;2023-04-25T08:43:53;19.92;;;9.73;;
20629;SDS011;17386;43.846;25.950;2023-04-25T08:46:20;28.13;;;20.30;;
20629;SDS011;17386;43.846;25.950;2023-04-25T08:48:48;18.52;;;11.10;;
20629;SDS011;17386;43.846;25.950;2023-04-25T08:51:23;15.65;;;9.70;;
20629;SDS011;17386;43.846;25.950;2023-04-25T08:53:53;14.77;;;9.73;;
20629;SDS011;17386;43.846;25.950;2023-04-25T08:56:18;20.90;;;13.23;;
20629;SDS011;17386;43.846;25.950;2023-04-25T08:58:50;17.25;;;10.55;;
20629;SDS011;17386;43.846;25.950;2023-04-25T09:01:16;17.83;;;9.80;;
20629;SDS011;17386;43.846;25.950;2023-04-25T09:03:43;16.23;;;9.32;;
20629;SDS011;17386;43.846;25.950;2023-04-25T09:06:10;16.90;;;10.45;;
20629;SDS011;17386;43.846;25.950;2023-04-25T09:08:36;18.42;;;10.88;;
20629;SDS011;17386;43.846;25.950;2023-04-25T09:11:02;23.30;;;12.93;;
20629;SDS011;17386;43.846;25.950;2023-04-25T09:13:28;22.45;;;11.95;;
20629;SDS011;17386;43.846;25.950;2023-04-25T09:15:54;16.48;;;9.25;;
20629;SDS011;17386;43.846;25.950;2023-04-25T09:18:28;22.35;;;12.25;;
20629;SDS011;17386;43.846;25.950;2023-04-25T09:20:56;18.58;;;11.68;;
20629;SDS011;17386;43.846;25.950;2023-04-25T09:23:31;20.63;;;11.40;;
20629;SDS011;17386;43.846;25.950;2023-04-25T09:28:31;14.90;;;9.23;;
20629;SDS011;17386;43.846;25.950;2023-04-25T09:30:57;19.10;;;10.48;;
20629;SDS011;17386;43.846;25.950;2023-04-25T09:33:26;17.80;;;9.43;;
20629;SDS011;17386;43.846;25.950;2023-04-25T09:36:02;13.43;;;8.45;;
20629;SDS011;17386;43.846;25.950;2023-04-25T09:38:33;13.25;;;8.25;;
20629;SDS011;17386;43.846;25.950;2023-04-25T09:41:06;13.57;;;8.02;;
20629;SDS011;17386;43.846;25.950;2023-04-25T09:43:33;18.95;;;12.02;;
20629;SDS011;17386;43.846;25.950;2023-04-25T09:45:58;37.33;;;18.65;;
20629;SDS011;17386;43.846;25.950;2023-04-25T09:48:25;15.20;;;8.88;;
20629;SDS011;17386;43.846;25.950;2023-04-25T09:51:08;19.27;;;9.60;;
20629;SDS011;17386;43.846;25.950;2023-04-25T09:53:41;16.60;;;9.98;;
20629;SDS011;17386;43.846;25.950;2023-04-25T09:56:09;22.80;;;9.60;;
20629;SDS011;17386;43.846;25.950;2023-04-25T09:58:37;16.98;;;9.02;;
20629;SDS011;17386;43.846;25.950;2023-04-25T10:01:05;16.52;;;9.73;;
20629;SDS011;17386;43.846;25.950;2023-04-25T10:03:33;15.70;;;8.27;;
20629;SDS011;17386;43.846;25.950;2023-04-25T10:06:00;16.25;;;8.60;;
20629;SDS011;17386;43.846;25.950;2023-04-25T10:08:33;23.02;;;12.13;;
20629;SDS011;17386;43.846;25.950;2023-04-25T10:11:03;11.18;;;6.20;;
20629;SDS011;17386;43.846;25.950;2023-04-25T10:13:30;10.30;;;6.50;;
20629;SDS011;17386;43.846;25.950;2023-04-25T10:15:57;20.40;;;8.07;;
20629;SDS011;17386;43.846;25.950;2023-04-25T10:18:24;11.73;;;6.30;;
20629;SDS011;17386;43.846;25.950;2023-04-25T10:20:51;11.07;;;4.72;;
20629;SDS011;17386;43.846;25.950;2023-04-25T10:23:17;12.70;;;5.57;;
20629;SDS011;17386;43.846;25.950;2023-04-25T10:25:43;15.85;;;5.20;;
20629;SDS011;17386;43.846;25.950;2023-04-25T10:28:09;27.92;;;14.63;;
20629;SDS011;17386;43.846;25.950;2023-04-25T10:30:34;6.70;;;3.45;;
20629;SDS011;17386;43.846;25.950;2023-04-25T10:33:00;5.68;;;2.83;;
20629;SDS011;17386;43.846;25.950;2023-04-25T10:38:02;10.27;;;4.47;;
20629;SDS011;17386;43.846;25.950;2023-04-25T10:40:32;8.48;;;3.55;;
20629;SDS011;17386;43.846;25.950;2023-04-25T10:46:01;7.35;;;4.53;;
20629;SDS011;17386;43.846;25.950;2023-04-25T10:48:29;8.10;;;3.30;;
20629;SDS011;17386;43.846;25.950;2023-04-25T10:51:08;6.75;;;4.15;;
20629;SDS011;17386;43.846;25.950;2023-04-25T10:53:34;6.80;;;3.60;;
20629;SDS011;17386;43.846;25.950;2023-04-25T10:56:00;7.68;;;3.83;;
20629;SDS011;17386;43.846;25.950;2023-04-25T10:58:34;7.70;;;3.60;;
20629;SDS011;17386;43.846;25.950;2023-04-25T11:01:01;6.28;;;3.78;;
20629;SDS011;17386;43.846;25.950;2023-04-25T11:03:26;5.40;;;3.20;;
20629;SDS011;17386;43.846;25.950;2023-04-25T11:05:52;6.65;;;3.60;;
20629;SDS011;17386;43.846;25.950;2023-04-25T11:08:21;7.85;;;4.25;;
20629;SDS011;17386;43.846;25.950;2023-04-25T11:11:08;6.03;;;4.38;;
20629;SDS011;17386;43.846;25.950;2023-04-25T11:13:34;7.78;;;4.30;;
20629;SDS011;17386;43.846;25.950;2023-04-25T11:16:00;8.40;;;3.55;;
20629;SDS011;17386;43.846;25.950;2023-04-25T11:18:26;6.00;;;3.22;;
20629;SDS011;17386;43.846;25.950;2023-04-25T11:20:52;6.82;;;3.47;;
20629;SDS011;17386;43.846;25.950;2023-04-25T11:23:17;4.47;;;2.92;;
20629;SDS011;17386;43.846;25.950;2023-04-25T11:25:43;4.95;;;3.38;;
20629;SDS011;17386;43.846;25.950;2023-04-25T11:28:09;6.65;;;3.13;;
20629;SDS011;17386;43.846;25.950;2023-04-25T11:30:35;7.22;;;3.03;;
20629;SDS011;17386;43.846;25.950;2023-04-25T11:33:00;7.60;;;3.08;;
20629;SDS011;17386;43.846;25.950;2023-04-25T11:35:27;6.10;;;2.65;;
20629;SDS011;17386;43.846;25.950;2023-04-25T11:37:53;4.80;;;2.90;;
20629;SDS011;17386;43.846;25.950;2023-04-25T11:40:18;7.07;;;3.17;;
20629;SDS011;17386;43.846;25.950;2023-04-25T11:42:44;6.07;;;3.55;;
20629;SDS011;17386;43.846;25.950;2023-04-25T11:45:11;8.02;;;3.80;;
20629;SDS011;17386;43.846;25.950;2023-04-25T11:47:37;7.35;;;4.18;;
20629;SDS011;17386;43.846;25.950;2023-04-25T11:50:03;6.55;;;4.28;;
20629;SDS011;17386;43.846;25.950;2023-04-25T11:52:36;5.70;;;3.17;;
20629;SDS011;17386;43.846;25.950;2023-04-25T11:55:19;6.63;;;3.30;;
20629;SDS011;17386;43.846;25.950;2023-04-25T11:57:45;5.90;;;4.05;;
20629;SDS011;17386;43.846;25.950;2023-04-25T12:00:15;6.97;;;4.28;;
20629;SDS011;17386;43.846;25.950;2023-04-25T12:02:46;9.18;;;4.50;;
20629;SDS011;17386;43.846;25.950;2023-04-25T12:05:13;8.45;;;3.72;;
20629;SDS011;17386;43.846;25.950;2023-04-25T12:07:41;8.15;;;4.32;;
20629;SDS011;17386;43.846;25.950;2023-04-25T12:10:08;8.68;;;3.72;;
20629;SDS011;17386;43.846;25.950;2023-04-25T12:12:35;7.82;;;3.90;;
20629;SDS011;17386;43.846;25.950;2023-04-25T12:15:08;6.10;;;3.20;;
20629;SDS011;17386;43.846;25.950;2023-04-25T12:17:44;6.03;;;3.50;;
20629;SDS011;17386;43.846;25.950;2023-04-25T12:20:18;5.93;;;3.20;;
20629;SDS011;17386;43.846;25.950;2023-04-25T12:22:46;5.68;;;3.22;;
20629;SDS011;17386;43.846;25.950;2023-04-25T12:25:57;7.30;;;3.90;;
20629;SDS011;17386;43.846;25.950;2023-04-25T12:28:13;5.75;;;2.88;;
20629;SDS011;17386;43.846;25.950;2023-04-25T12:33:43;6.20;;;2.85;;
20629;SDS011;17386;43.846;25.950;2023-04-25T12:36:12;4.55;;;2.83;;
20629;SDS011;17386;43.846;25.950;2023-04-25T12:38:39;5.93;;;2.90;;
20629;SDS011;17386;43.846;25.950;2023-04-25T12:41:06;5.65;;;3.17;;
20629;SDS011;17386;43.846;25.950;2023-04-25T12:43:32;6.03;;;3.10;;
20629;SDS011;17386;43.846;25.950;2023-04-25T12:45:58;4.65;;;2.95;;
20629;SDS011;17386;43.846;25.950;2023-04-25T12:48:24;4.03;;;2.60;;
20629;SDS011;17386;43.846;25.950;2023-04-25T12:50:50;5.63;;;3.28;;
20629;SDS011;17386;43.846;25.950;2023-04-25T12:53:19;6.32;;;3.42;;
20629;SDS011;17386;43.846;25.950;2023-04-25T12:55:46;6.18;;;2.85;;
20629;SDS011;17386;43.846;25.950;2023-04-25T12:58:12;6.00;;;2.92;;
20629;SDS011;17386;43.846;25.950;2023-04-25T13:00:40;4.50;;;2.38;;
20629;SDS011;17386;43.846;25.950;2023-04-25T13:03:07;3.60;;;2.22;;
20629;SDS011;17386;43.846;25.950;2023-04-25T13:05:33;5.70;;;3.30;;
20629;SDS011;17386;43.846;25.950;2023-04-25T13:07:59;5.43;;;2.70;;
20629;SDS011;17386;43.846;25.950;2023-04-25T13:10:25;15.75;;;10.32;;
20629;SDS011;17386;43.846;25.950;2023-04-25T13:12:50;4.45;;;3.08;;
20629;SDS011;17386;43.846;25.950;2023-04-25T13:15:16;5.13;;;3.10;;
20629;SDS011;17386;43.846;25.950;2023-04-25T13:17:42;5.55;;;2.20;;
20629;SDS011;17386;43.846;25.950;2023-04-25T13:20:07;3.47;;;1.95;;
20629;SDS011;17386;43.846;25.950;2023-04-25T13:22:37;9.18;;;4.00;;
20629;SDS011;17386;43.846;25.950;2023-04-25T13:25:04;4.47;;;2.25;;
20629;SDS011;17386;43.846;25.950;2023-04-25T13:27:31;2.70;;;1.83;;
20629;SDS011;17386;43.846;25.950;2023-04-25T13:29:58;3.90;;;2.50;;
20629;SDS011;17386;43.846;25.950;2023-04-25T13:32:33;3.20;;;2.10;;
20629;SDS011;17386;43.846;25.950;2023-04-25T13:35:01;5.60;;;2.30;;
20629;SDS011;17386;43.846;25.950;2023-04-25T13:37:27;2.78;;;1.88;;
20629;SDS011;17386;43.846;25.950;2023-04-25T13:39:54;7.13;;;2.42;;
20629;SDS011;17386;43.846;25.950;2023-04-25T13:42:20;4.28;;;2.00;;
20629;SDS011;17386;43.846;25.950;2023-04-25T13:44:46;7.78;;;2.38;;
20629;SDS011;17386;43.846;25.950;2023-04-25T13:47:11;4.45;;;2.60;;
20629;SDS011;17386;43.846;25.950;2023-04-25T13:49:37;4.05;;;1.80;;
20629;SDS011;17386;43.846;25.950;2023-04-25T13:52:02;4.43;;;2.42;;
20629;SDS011;17386;43.846;25.950;2023-04-25T13:54:27;3.55;;;1.75;;
20629;SDS011;17386;43.846;25.950;2023-04-25T13:56:53;5.18;;;1.60;;
20629;SDS011;17386;43.846;25.950;2023-04-25T13:59:23;6.72;;;1.77;;
20629;SDS011;17386;43.846;25.950;2023-04-25T14:01:49;4.47;;;2.20;;
20629;SDS011;17386;43.846;25.950;2023-04-25T14:04:14;4.57;;;1.90;;
20629;SDS011;17386;43.846;25.950;2023-04-25T14:06:40;6.88;;;2.33;;
20629;SDS011;17386;43.846;25.950;2023-04-25T14:09:06;4.93;;;2.22;;
20629;SDS011;17386;43.846;25.950;2023-04-25T14:11:36;4.95;;;2.33;;
20629;SDS011;17386;43.846;25.950;2023-04-25T14:14:01;3.58;;;2.03;;
20629;SDS011;17386;43.846;25.950;2023-04-25T14:16:27;3.72;;;1.98;;
20629;SDS011;17386;43.846;25.950;2023-04-25T14:18:53;5.65;;;1.55;;
20629;SDS011;17386;43.846;25.950;2023-04-25T14:21:19;4.07;;;1.75;;
20629;SDS011;17386;43.846;25.950;2023-04-25T14:23:46;2.13;;;1.75;;
20629;SDS011;17386;43.846;25.950;2023-04-25T14:26:12;4.30;;;1.77;;
20629;SDS011;17386;43.846;25.950;2023-04-25T14:28:37;6.55;;;2.05;;
20629;SDS011;17386;43.846;25.950;2023-04-25T14:31:03;3.83;;;1.63;;
20629;SDS011;17386;43.846;25.950;2023-04-25T14:33:29;5.43;;;1.60;;
20629;SDS011;17386;43.846;25.950;2023-04-25T14:35:55;2.70;;;1.48;;
20629;SDS011;17386;43.846;25.950;2023-04-25T14:38:21;2.28;;;1.10;;
20629;SDS011;17386;43.846;25.950;2023-04-25T14:40:48;3.05;;;1.33;;